createdAt,value
2022-10-28T00:01:19.253Z,100.00
2022-10-28T00:04:07.720Z,100.00
2022-10-28T00:06:56.130Z,100.00
2022-10-28T00:09:45.898Z,100.00
2022-10-28T00:12:36.310Z,100.00
2022-10-28T00:15:24.764Z,100.00
2022-10-28T00:18:13.180Z,100.00
2022-10-28T00:21:02.991Z,100.00
2022-10-28T00:23:51.568Z,100.00
2022-10-28T00:26:43.407Z,100.00
2022-10-28T00:29:32.312Z,100.00
2022-10-28T00:32:20.744Z,100.00
2022-10-28T00:35:09.258Z,100.00
2022-10-28T00:37:57.676Z,100.00
2022-10-28T00:40:46.068Z,100.00
2022-10-28T00:43:37.496Z,100.00
2022-10-28T00:46:30.314Z,100.00
2022-10-28T00:49:21.848Z,100.00
2022-10-28T00:52:14.392Z,100.00
2022-10-28T00:55:04.098Z,100.00
2022-10-28T00:57:56.557Z,100.00
2022-10-28T01:00:46.332Z,100.00
2022-10-28T01:03:34.820Z,100.00
2022-10-28T01:06:23.333Z,100.00
2022-10-28T01:09:11.786Z,100.00
2022-10-28T01:12:04.753Z,100.00
2022-10-28T01:15:03.269Z,100.00
2022-10-28T01:17:59.310Z,100.00
2022-10-28T01:21:13.705Z,100.00
2022-10-28T01:24:14.208Z,100.00
2022-10-28T01:27:38.135Z,100.00
2022-10-28T01:30:29.675Z,100.00
2022-10-28T01:33:24.027Z,100.00
2022-10-28T01:36:15.790Z,100.00
2022-10-28T01:39:10.953Z,100.00
2022-10-28T01:42:04.796Z,100.00
2022-10-28T01:44:55.185Z,100.00
2022-10-28T01:47:46.641Z,100.00
2022-10-28T01:50:39.251Z,100.00
2022-10-28T01:53:30.461Z,100.00
2022-10-28T01:56:23.179Z,100.00
2022-10-28T01:59:15.285Z,100.00
2022-10-28T02:02:03.730Z,100.00
2022-10-28T02:04:52.146Z,100.00
2022-10-28T02:07:41.927Z,100.00
2022-10-28T02:10:34.094Z,100.00
2022-10-28T02:13:29.372Z,100.00
2022-10-28T02:16:21.943Z,100.00
2022-10-28T02:19:15.761Z,100.00
2022-10-28T02:22:15.083Z,100.00
2022-10-28T02:25:09.269Z,100.00
2022-10-28T02:27:59.782Z,100.00
2022-10-28T02:30:52.195Z,100.00
2022-10-28T02:33:40.897Z,100.00
2022-10-28T02:36:31.306Z,100.00
2022-10-28T02:39:23.397Z,100.00
2022-10-28T02:42:16.516Z,100.00
2022-10-28T02:45:09.370Z,100.00
2022-10-28T02:48:02.791Z,100.00
2022-10-28T02:50:55.055Z,100.00
2022-10-28T02:53:52.145Z,100.00
2022-10-28T02:56:43.968Z,100.00
2022-10-28T02:59:33.764Z,100.00
2022-10-28T03:02:22.839Z,100.00
2022-10-28T03:05:11.478Z,100.00
2022-10-28T03:07:59.858Z,100.00
2022-10-28T03:10:48.256Z,100.00
2022-10-28T03:13:36.691Z,100.00
2022-10-28T03:16:27.492Z,100.00
2022-10-28T03:19:15.888Z,100.00
2022-10-28T03:22:04.544Z,100.00
2022-10-28T03:24:52.979Z,100.00
2022-10-28T03:27:43.079Z,100.00
2022-10-28T03:30:31.533Z,100.00
2022-10-28T03:33:21.290Z,100.00
2022-10-28T03:36:09.800Z,100.00
2022-10-28T03:38:58.206Z,100.00
2022-10-28T03:41:46.607Z,100.00
2022-10-28T03:44:34.992Z,100.00
2022-10-28T03:47:23.406Z,100.00
2022-10-28T03:50:13.168Z,100.00
2022-10-28T03:53:01.620Z,100.00
2022-10-28T03:55:53.513Z,100.00
2022-10-28T03:58:41.975Z,100.00
2022-10-28T04:01:31.566Z,100.00
2022-10-28T04:04:20.151Z,100.00
2022-10-28T04:07:09.907Z,100.00
2022-10-28T04:09:58.301Z,100.00
2022-10-28T04:12:46.707Z,100.00
2022-10-28T04:15:35.162Z,100.00
2022-10-28T04:18:23.595Z,100.00
2022-10-28T04:21:12.020Z,100.00
2022-10-28T04:24:01.788Z,100.00
2022-10-28T04:26:50.182Z,100.00
2022-10-28T04:29:38.634Z,100.00
2022-10-28T04:32:27.048Z,100.00
2022-10-28T04:35:15.669Z,100.00
2022-10-28T04:38:04.069Z,100.00
2022-10-28T04:40:53.965Z,100.00
2022-10-28T04:43:42.396Z,100.00
2022-10-28T04:46:30.872Z,100.00
2022-10-28T04:49:19.296Z,100.00
2022-10-28T04:52:09.779Z,100.00
2022-10-28T04:55:00.520Z,100.00
2022-10-28T04:57:55.989Z,100.00
2022-10-28T05:00:44.392Z,100.00
2022-10-28T05:03:32.866Z,100.00
2022-10-28T05:06:21.303Z,100.00
2022-10-28T05:09:09.746Z,100.00
2022-10-28T05:11:58.142Z,100.00
2022-10-28T05:14:51.189Z,100.00
2022-10-28T05:17:41.824Z,100.00
2022-10-28T05:20:30.245Z,100.00
2022-10-28T05:23:18.643Z,100.00
2022-10-28T05:26:07.094Z,100.00
2022-10-28T05:28:55.534Z,100.00
2022-10-28T05:31:45.296Z,100.00
2022-10-28T05:34:33.751Z,100.00
2022-10-28T05:37:22.176Z,100.00
2022-10-28T05:40:12.027Z,100.00
2022-10-28T05:43:00.525Z,100.00
2022-10-28T05:45:53.333Z,100.00
2022-10-28T05:48:43.102Z,100.00
2022-10-28T05:51:31.548Z,100.00
2022-10-28T05:54:20.287Z,100.00
2022-10-28T05:57:08.730Z,100.00
2022-10-28T05:59:57.162Z,100.00
2022-10-28T06:02:45.636Z,100.00
2022-10-28T06:05:35.451Z,100.00
2022-10-28T06:08:23.863Z,100.00
2022-10-28T06:11:10.768Z,100.00
2022-10-28T06:13:59.215Z,100.00
2022-10-28T06:16:47.667Z,100.00
2022-10-28T06:19:36.052Z,100.00
2022-10-28T06:22:25.853Z,100.00
2022-10-28T06:25:14.364Z,100.00
2022-10-28T06:28:05.814Z,100.00
2022-10-28T06:31:01.478Z,100.00
2022-10-28T06:33:49.940Z,100.00
2022-10-28T06:36:38.788Z,100.00
2022-10-28T06:39:28.569Z,100.00
2022-10-28T06:42:17.007Z,100.00
2022-10-28T06:45:06.823Z,100.00
2022-10-28T06:47:57.671Z,100.00
2022-10-28T06:50:46.137Z,100.00
2022-10-28T06:53:34.565Z,100.00
2022-10-28T06:56:24.362Z,100.00
2022-10-28T06:59:12.841Z,100.00
2022-10-28T07:02:01.418Z,100.00
2022-10-28T07:04:49.944Z,100.00
2022-10-28T07:07:38.391Z,100.00
2022-10-28T07:10:26.796Z,100.00
2022-10-28T07:13:16.566Z,100.00
2022-10-28T07:16:05.583Z,100.00
2022-10-28T07:18:54.015Z,100.00
2022-10-28T07:21:42.427Z,100.00
2022-10-28T07:24:30.875Z,100.00
2022-10-28T07:27:19.354Z,100.00
2022-10-28T07:30:10.941Z,100.00
2022-10-28T07:33:01.108Z,100.00
2022-10-28T07:35:49.649Z,100.00
2022-10-28T07:38:38.266Z,100.00
2022-10-28T07:41:26.882Z,100.00
2022-10-28T07:44:15.426Z,100.00
2022-10-28T07:47:05.322Z,100.00
2022-10-28T07:49:54.539Z,100.00
2022-10-28T07:52:43.076Z,100.00
2022-10-28T07:55:31.501Z,100.00
2022-10-28T07:58:19.924Z,100.00
2022-10-28T08:01:09.923Z,100.00
2022-10-28T08:03:59.805Z,100.00
2022-10-28T08:06:48.315Z,100.00
2022-10-28T08:09:36.809Z,100.00
2022-10-28T08:12:25.236Z,100.00
2022-10-28T08:15:15.521Z,100.00
2022-10-28T08:18:03.966Z,100.00
2022-10-28T08:20:53.865Z,100.00
2022-10-28T08:23:46.331Z,100.00
2022-10-28T08:26:34.759Z,100.00
2022-10-28T08:29:27.672Z,100.00
2022-10-28T08:32:18.488Z,100.00
2022-10-28T08:35:07.756Z,100.00
2022-10-28T08:37:57.678Z,100.00
2022-10-28T08:40:56.575Z,100.00
2022-10-28T08:43:58.112Z,100.00
2022-10-28T08:46:58.663Z,100.00
2022-10-28T08:49:51.223Z,100.00
2022-10-28T08:52:44.070Z,100.00
2022-10-28T08:55:36.519Z,100.00
2022-10-28T08:58:27.285Z,100.00
2022-10-28T09:01:23.918Z,100.00
2022-10-28T09:04:19.658Z,100.00
2022-10-28T09:07:12.986Z,100.00
2022-10-28T09:10:01.428Z,100.00
2022-10-28T09:12:56.142Z,100.00
2022-10-28T09:15:50.915Z,100.00
2022-10-28T09:18:51.701Z,100.00
2022-10-28T09:21:46.455Z,100.00
2022-10-28T09:24:43.135Z,100.00
2022-10-28T09:27:45.616Z,100.00
2022-10-28T09:30:42.922Z,100.00
2022-10-28T09:33:44.061Z,100.00
2022-10-28T09:36:35.067Z,100.00
2022-10-28T09:39:28.053Z,100.00
2022-10-28T09:42:20.374Z,100.00
2022-10-28T09:45:14.107Z,100.00
2022-10-28T09:48:07.451Z,100.00
2022-10-28T09:50:57.683Z,100.00
2022-10-28T09:53:49.719Z,100.00
2022-10-28T09:56:38.410Z,100.00
2022-10-28T09:59:26.874Z,100.00
2022-10-28T10:02:27.251Z,100.00
2022-10-28T10:05:18.822Z,100.00
2022-10-28T10:08:08.073Z,100.00
2022-10-28T10:10:59.461Z,100.00
2022-10-28T10:13:48.198Z,100.00
2022-10-28T10:16:40.903Z,100.00
2022-10-28T10:19:29.578Z,100.00
2022-10-28T10:22:30.861Z,100.00
2022-10-28T10:25:26.149Z,100.00
2022-10-28T10:28:16.798Z,100.00
2022-10-28T10:31:06.820Z,100.00
2022-10-28T10:33:57.584Z,100.00
2022-10-28T10:36:50.409Z,100.00
2022-10-28T10:39:40.163Z,100.00
2022-10-28T10:42:28.711Z,100.00
2022-10-28T10:45:23.303Z,100.00
2022-10-28T10:48:15.849Z,100.00
2022-10-28T10:51:09.275Z,100.00
2022-10-28T10:54:00.740Z,100.00
2022-10-28T10:56:50.607Z,100.00
2022-10-28T10:59:40.965Z,100.00
2022-10-28T11:02:34.609Z,100.00
2022-10-28T11:05:27.196Z,100.00
2022-10-28T11:08:34.438Z,98.00
2022-10-28T11:11:24.520Z,97.43
2022-10-28T11:14:24.298Z,95.12
2022-10-28T11:17:25.200Z,93.05
2022-10-28T11:20:25.336Z,90.93
2022-10-28T11:23:26.016Z,89.31
2022-10-28T11:26:15.399Z,87.18
2022-10-28T11:29:09.979Z,86.47
2022-10-28T11:32:14.059Z,85.92
2022-10-28T11:35:18.319Z,85.14
2022-10-28T11:38:17.881Z,85.27
2022-10-28T11:41:15.497Z,85.68
2022-10-28T11:44:09.609Z,84.79
2022-10-28T11:47:06.330Z,85.03
2022-10-28T11:50:09.191Z,83.42
2022-10-28T11:53:32.985Z,83.16
2022-10-28T11:56:31.055Z,83.13
2022-10-28T11:59:34.858Z,80.71
2022-10-28T12:02:39.638Z,76.33
2022-10-28T12:05:31.798Z,74.25
2022-10-28T12:08:33.457Z,73.31
2022-10-28T12:11:27.328Z,72.53
2022-10-28T12:14:23.886Z,73.09
2022-10-28T12:17:18.006Z,71.29
2022-10-28T12:20:12.600Z,70.47
2022-10-28T12:23:03.105Z,70.10
2022-10-28T12:25:54.771Z,69.20
2022-10-28T12:28:45.818Z,69.28
2022-10-28T12:31:39.050Z,69.08
2022-10-28T12:34:33.598Z,68.43
2022-10-28T12:37:25.546Z,67.29
2022-10-28T12:40:18.399Z,66.58
2022-10-28T12:43:10.601Z,64.39
2022-10-28T12:45:59.314Z,64.25
2022-10-28T12:48:49.955Z,62.90
2022-10-28T12:51:40.332Z,62.66
2022-10-28T12:54:34.478Z,62.18
2022-10-28T12:57:24.467Z,61.45
2022-10-28T13:00:18.240Z,60.06
2022-10-28T13:03:10.715Z,62.47
2022-10-28T13:06:23.185Z,62.15
2022-10-28T13:09:26.330Z,62.24
2022-10-28T13:12:49.595Z,62.53
2022-10-28T13:16:10.485Z,61.08
2022-10-28T13:19:15.815Z,61.35
2022-10-28T13:25:41.935Z,62.80
2022-10-28T13:28:34.295Z,63.17
2022-10-28T13:31:22.742Z,63.76
2022-10-28T13:34:12.081Z,64.46
2022-10-28T13:37:03.287Z,64.90
2022-10-28T13:39:51.791Z,66.27
2022-10-28T13:42:49.433Z,65.29
2022-10-28T13:45:51.408Z,65.02
2022-10-28T13:48:49.185Z,65.55
2022-10-28T13:51:47.585Z,64.01
2022-10-28T13:54:55.263Z,64.79
2022-10-28T13:57:45.589Z,64.60
2022-10-28T14:00:36.411Z,65.53
2022-10-28T14:03:27.029Z,66.12
2022-10-28T14:06:31.411Z,66.71
2022-10-28T14:09:22.184Z,67.63
2022-10-28T14:12:18.455Z,67.64
2022-10-28T14:15:18.747Z,67.81
2022-10-28T14:18:42.115Z,67.73
2022-10-28T14:21:44.458Z,68.05
2022-10-28T14:24:33.958Z,68.49
2022-10-28T14:27:29.987Z,69.01
2022-10-28T14:30:22.796Z,69.04
2022-10-28T14:33:23.715Z,69.27
2022-10-28T14:36:24.387Z,69.20
2022-10-28T14:39:36.658Z,69.54
2022-10-28T14:42:37.942Z,69.38
2022-10-28T14:45:32.741Z,70.29
2022-10-28T14:48:41.434Z,72.16
2022-10-28T14:51:37.936Z,72.79
2022-10-28T14:54:40.591Z,72.41
2022-10-28T14:57:33.636Z,73.05
2022-10-28T15:00:25.843Z,74.71
2022-10-28T15:03:14.589Z,74.93
2022-10-28T15:06:03.466Z,76.52
2022-10-28T15:08:52.076Z,79.42
2022-10-28T15:11:43.736Z,82.65
2022-10-28T15:14:34.791Z,86.03
2022-10-28T15:17:24.904Z,91.29
2022-10-28T15:20:21.912Z,94.52
2022-10-28T15:23:16.353Z,95.60
2022-10-28T15:26:08.921Z,98.14
2022-10-28T15:28:59.275Z,99.51
2022-10-28T15:32:20.250Z,100.00
2022-10-28T15:35:38.027Z,100.00
2022-10-28T15:38:35.804Z,99.30
2022-10-28T15:41:42.338Z,100.00
2022-10-28T15:44:37.878Z,100.00
2022-10-28T15:47:31.750Z,100.00
2022-10-28T15:50:31.655Z,100.00
2022-10-28T15:53:39.526Z,100.00
2022-10-28T15:56:28.442Z,100.00
2022-10-28T15:59:21.290Z,100.00
2022-10-28T16:05:54.276Z,100.00
2022-10-28T16:08:42.835Z,100.00
2022-10-28T16:11:31.736Z,100.00
2022-10-28T16:14:36.426Z,100.00
2022-10-28T16:17:27.075Z,100.00
2022-10-28T16:20:20.571Z,100.00
2022-10-28T16:23:15.434Z,100.00
2022-10-28T16:26:03.951Z,100.00
2022-10-28T16:28:52.561Z,100.00
2022-10-28T16:31:42.114Z,100.00
2022-10-28T16:34:30.629Z,100.00
2022-10-28T16:37:22.859Z,100.00
2022-10-28T16:40:30.958Z,100.00
2022-10-28T16:43:22.370Z,100.00
2022-10-28T16:46:12.449Z,100.00
2022-10-28T16:49:00.979Z,100.00
2022-10-28T16:51:49.410Z,100.00
2022-10-28T16:54:39.190Z,100.00
2022-10-28T16:57:27.972Z,100.00
2022-10-28T17:00:16.907Z,100.00
2022-10-28T17:03:05.597Z,100.00
2022-10-28T17:05:54.023Z,100.00
2022-10-28T17:09:02.431Z,100.00
2022-10-28T17:11:52.267Z,100.00
2022-10-28T17:14:40.698Z,100.00
2022-10-28T17:17:29.150Z,100.00
2022-10-28T17:20:17.830Z,100.00
2022-10-28T17:23:06.763Z,100.00
2022-10-28T17:25:58.914Z,100.00
2022-10-28T17:28:53.115Z,100.00
2022-10-28T17:31:41.624Z,100.00
2022-10-28T17:34:30.110Z,100.00
2022-10-28T17:37:18.658Z,100.00
2022-10-28T17:40:08.972Z,100.00
2022-10-28T17:42:58.859Z,100.00
2022-10-28T17:45:48.668Z,100.00
2022-10-28T17:48:37.226Z,100.00
2022-10-28T17:51:25.840Z,100.00
2022-10-28T17:54:14.313Z,100.00
2022-10-28T17:57:02.750Z,100.00
2022-10-28T17:59:51.250Z,100.00
2022-10-28T18:02:41.225Z,100.00
2022-10-28T18:05:29.710Z,100.00
2022-10-28T18:08:18.434Z,100.00
2022-10-28T18:11:07.639Z,100.00
2022-10-28T18:13:56.318Z,100.00
2022-10-28T18:16:46.134Z,100.00
2022-10-28T18:19:35.951Z,100.00
2022-10-28T18:25:17.761Z,100.00
2022-10-28T18:28:07.023Z,100.00
2022-10-28T18:30:55.496Z,100.00
2022-10-28T18:33:44.669Z,100.00
2022-10-28T18:36:35.963Z,100.00
2022-10-28T18:39:24.465Z,100.00
2022-10-28T18:42:13.507Z,100.00
2022-10-28T18:45:02.793Z,100.00
2022-10-28T18:47:51.302Z,100.00
2022-10-28T18:50:39.854Z,100.00
2022-10-28T18:53:29.848Z,100.00
2022-10-28T18:56:20.563Z,100.00
2022-10-28T18:59:09.068Z,100.00
2022-10-28T19:01:57.562Z,100.00
2022-10-28T19:04:46.173Z,100.00
2022-10-28T19:07:34.647Z,100.00
2022-10-28T19:10:24.527Z,100.00
2022-10-28T19:13:13.012Z,100.00
2022-10-28T19:16:01.652Z,100.00
2022-10-28T19:18:50.191Z,100.00
2022-10-28T19:21:38.630Z,100.00
2022-10-28T19:24:27.648Z,100.00
2022-10-28T19:27:17.472Z,100.00
2022-10-28T19:30:09.239Z,100.00
2022-10-28T19:33:00.964Z,100.00
2022-10-28T19:35:49.418Z,100.00
2022-10-28T19:38:39.419Z,100.00
2022-10-28T19:41:29.103Z,100.00
2022-10-28T19:44:18.912Z,100.00
2022-10-28T19:47:08.070Z,100.00
2022-10-28T19:49:56.619Z,100.00
2022-10-28T19:52:45.159Z,100.00
2022-10-28T19:55:33.652Z,100.00
2022-10-28T19:58:22.162Z,100.00
2022-10-28T20:01:12.376Z,100.00
2022-10-28T20:04:01.010Z,100.00
2022-10-28T20:06:49.418Z,100.00
2022-10-28T20:09:37.843Z,100.00
2022-10-28T20:12:27.711Z,100.00
2022-10-28T20:15:16.421Z,100.00
2022-10-28T20:18:06.457Z,100.00
2022-10-28T20:20:54.911Z,100.00
2022-10-28T20:23:44.248Z,100.00
2022-10-28T20:26:34.384Z,100.00
2022-10-28T20:29:22.819Z,100.00
2022-10-28T20:32:11.243Z,100.00
2022-10-28T20:35:01.977Z,100.00
2022-10-28T20:37:54.511Z,100.00
2022-10-28T20:40:43.354Z,100.00
2022-10-28T20:43:31.969Z,100.00
2022-10-28T20:46:20.968Z,100.00
2022-10-28T20:49:10.514Z,100.00
2022-10-28T20:52:00.813Z,100.00
2022-10-28T20:54:49.249Z,100.00
2022-10-28T20:57:37.687Z,100.00
2022-10-28T21:00:26.105Z,100.00
2022-10-28T21:03:14.696Z,100.00
2022-10-28T21:06:03.542Z,100.00
2022-10-28T21:08:54.486Z,100.00
2022-10-28T21:11:45.258Z,100.00
2022-10-28T21:14:33.790Z,100.00
2022-10-28T21:17:22.199Z,100.00
2022-10-28T21:20:11.559Z,100.00
2022-10-28T21:23:00.513Z,100.00
2022-10-28T21:25:54.382Z,100.00
2022-10-28T21:28:42.924Z,100.00
2022-10-28T21:31:31.379Z,100.00
2022-10-28T21:34:19.776Z,100.00
2022-10-28T21:37:08.187Z,100.00
2022-10-28T21:40:00.897Z,100.00
2022-10-28T21:42:51.283Z,100.00
2022-10-28T21:45:39.694Z,100.00
2022-10-28T21:48:28.710Z,100.00
2022-10-28T21:51:17.873Z,100.00
2022-10-28T21:54:06.490Z,100.00
2022-10-28T21:56:54.896Z,100.00
2022-10-28T21:59:44.682Z,100.00
2022-10-28T22:02:33.227Z,100.00
2022-10-28T22:05:21.765Z,100.00
2022-10-28T22:08:10.169Z,100.00
2022-10-28T22:11:00.197Z,100.00
2022-10-28T22:13:49.435Z,100.00
2022-10-28T22:16:39.226Z,100.00
2022-10-28T22:19:27.660Z,100.00
2022-10-28T22:22:16.107Z,100.00
2022-10-28T22:25:07.745Z,100.00
2022-10-28T22:27:58.814Z,100.00
2022-10-28T22:30:47.246Z,100.00
2022-10-28T22:33:37.617Z,100.00
2022-10-28T22:36:27.653Z,100.00
2022-10-28T22:39:16.065Z,100.00
2022-10-28T22:42:04.710Z,100.00
2022-10-28T22:44:53.151Z,100.00
2022-10-28T22:47:41.568Z,100.00
2022-10-28T22:50:31.340Z,100.00
2022-10-28T22:53:19.975Z,100.00
2022-10-28T22:56:09.816Z,100.00
2022-10-28T22:58:59.629Z,100.00
2022-10-28T23:01:48.401Z,100.00
2022-10-28T23:04:37.087Z,100.00
2022-10-28T23:07:26.857Z,100.00
2022-10-28T23:10:15.368Z,100.00
2022-10-28T23:13:03.863Z,100.00
2022-10-28T23:15:53.489Z,100.00
2022-10-28T23:18:42.898Z,100.00
2022-10-28T23:21:31.399Z,100.00
2022-10-28T23:24:21.218Z,100.00
2022-10-28T23:27:09.666Z,100.00
2022-10-28T23:29:58.108Z,100.00
2022-10-28T23:32:47.228Z,100.00
2022-10-28T23:35:35.654Z,100.00
2022-10-28T23:38:24.458Z,100.00
2022-10-28T23:41:18.488Z,100.00
2022-10-28T23:44:07.474Z,100.00
2022-10-28T23:46:55.897Z,100.00
2022-10-28T23:49:44.290Z,100.00
2022-10-28T23:52:32.701Z,100.00
2022-10-28T23:55:21.170Z,100.00
2022-10-28T23:58:10.938Z,100.00
